Time;durP1;ratioP1;P1;durP2;ratioP2;P2;SDS_P1;SDS_P2;PMS_P1;PMS_P2;Temp;Humidity;BMP_temperature;BMP_pressure;BME280_temperature;BME280_humidity;BME280_pressure;Samples;Min_cycle;Max_cycle;Signal;HPM_P1;HPM_P2
2021/12/03 00:01:19;;;;;;;39.55;6.05;;;;;;;;;;4978633;28;20047;-25
2021/12/03 00:03:46;;;;;;;54.85;5.97;;;;;;;;;;4978157;28;20385;-25
2021/12/03 00:06:14;;;;;;;57.10;8.88;;;;;;;;;;4978268;28;20030;-25
2021/12/03 00:08:40;;;;;;;37.35;7.68;;;;;;;;;;4978198;28;20027;-25
2021/12/03 00:11:09;;;;;;;23.42;5.03;;;;;;;;;;4978131;28;20050;-25
2021/12/03 00:13:36;;;;;;;42.08;6.30;;;;;;;;;;4978338;28;20030;-26
2021/12/03 00:16:03;;;;;;;33.03;6.03;;;;;;;;;;4978580;28;20050;-25
2021/12/03 00:18:29;;;;;;;52.47;10.00;;;;;;;;;;4978282;28;20030;-26
2021/12/03 00:20:56;;;;;;;40.53;8.13;;;;;;;;;;4978014;28;20039;-25
2021/12/03 00:23:28;;;;;;;54.38;6.10;;;;;;;;;;4960887;28;20046;-25
2021/12/03 00:25:54;;;;;;;47.03;5.07;;;;;;;;;;4978191;28;20082;-25
2021/12/03 00:28:21;;;;;;;31.20;6.03;;;;;;;;;;4978147;28;20065;-25
2021/12/03 00:30:48;;;;;;;40.88;5.45;;;;;;;;;;4978241;28;20050;-25
2021/12/03 00:33:14;;;;;;;40.10;7.30;;;;;;;;;;4977687;28;20410;-26
2021/12/03 00:35:40;;;;;;;41.22;5.45;;;;;;;;;;4978025;28;20050;-25
2021/12/03 00:38:06;;;;;;;37.85;6.57;;;;;;;;;;4977698;28;20035;-26
2021/12/03 00:40:37;;;;;;;48.53;6.13;;;;;;;;;;4977910;28;20493;-25
2021/12/03 00:43:04;;;;;;;49.63;6.60;;;;;;;;;;4977853;28;20038;-25
2021/12/03 00:45:31;;;;;;;34.13;6.82;;;;;;;;;;4977386;28;20109;-26
2021/12/03 00:47:58;;;;;;;39.10;6.32;;;;;;;;;;4977499;28;20030;-26
2021/12/03 00:50:24;;;;;;;26.80;5.03;;;;;;;;;;4977431;28;20027;-26
2021/12/03 00:52:51;;;;;;;39.95;5.68;;;;;;;;;;4977283;28;20023;-25
2021/12/03 00:55:19;;;;;;;41.97;5.68;;;;;;;;;;4977627;28;20446;-25
2021/12/03 00:57:45;;;;;;;32.22;5.30;;;;;;;;;;4977358;28;20070;-25
2021/12/03 01:00:14;;;;;;;27.55;5.70;;;;;;;;;;4977581;28;20035;-26
2021/12/03 01:02:40;;;;;;;47.97;6.35;;;;;;;;;;4977298;28;20027;-26
2021/12/03 01:05:07;;;;;;;40.75;5.60;;;;;;;;;;4977230;28;20030;-26
2021/12/03 01:07:33;;;;;;;30.40;6.28;;;;;;;;;;4977431;28;20034;-25
2021/12/03 01:10:00;;;;;;;28.40;4.97;;;;;;;;;;4977067;28;20039;-26
2021/12/03 01:12:26;;;;;;;30.30;5.68;;;;;;;;;;4976990;28;20055;-25
2021/12/03 01:14:52;;;;;;;33.22;5.35;;;;;;;;;;4960750;28;20084;-25
2021/12/03 01:17:18;;;;;;;36.47;5.00;;;;;;;;;;4977205;28;20019;-26
2021/12/03 01:19:45;;;;;;;44.75;6.05;;;;;;;;;;4977199;28;20035;-26
2021/12/03 01:22:11;;;;;;;36.42;5.47;;;;;;;;;;4976803;28;20035;-26
2021/12/03 01:24:37;;;;;;;47.00;6.40;;;;;;;;;;4977079;28;20459;-26
2021/12/03 01:27:04;;;;;;;47.65;6.18;;;;;;;;;;4977285;28;20034;-26
2021/12/03 01:29:30;;;;;;;31.70;6.72;;;;;;;;;;4977184;28;20362;-26
2021/12/03 01:31:56;;;;;;;33.85;6.28;;;;;;;;;;4976874;28;20489;-26
2021/12/03 01:34:23;;;;;;;33.05;6.90;;;;;;;;;;4976590;28;20057;-25
2021/12/03 01:36:50;;;;;;;37.20;7.07;;;;;;;;;;4976571;28;20042;-26
2021/12/03 01:39:16;;;;;;;30.45;4.80;;;;;;;;;;4977103;28;20034;-26
2021/12/03 01:41:43;;;;;;;35.53;7.70;;;;;;;;;;4976636;28;20031;-26
2021/12/03 01:44:09;;;;;;;44.03;7.40;;;;;;;;;;4976677;28;20050;-25
2021/12/03 01:46:36;;;;;;;43.30;7.55;;;;;;;;;;4976416;28;20077;-25
2021/12/03 01:49:03;;;;;;;38.10;7.55;;;;;;;;;;4976289;28;20034;-26
2021/12/03 01:51:29;;;;;;;31.00;4.95;;;;;;;;;;4976317;28;20037;-25
2021/12/03 01:53:56;;;;;;;30.10;5.03;;;;;;;;;;4976508;28;20027;-26
2021/12/03 01:56:23;;;;;;;27.65;4.60;;;;;;;;;;4975989;28;20045;-26
2021/12/03 01:58:50;;;;;;;29.30;4.70;;;;;;;;;;4975993;28;20049;-25
2021/12/03 02:01:18;;;;;;;35.88;4.82;;;;;;;;;;4976441;28;20031;-25
2021/12/03 02:03:46;;;;;;;36.35;4.78;;;;;;;;;;4975823;28;20051;-26
2021/12/03 02:06:13;;;;;;;45.85;5.70;;;;;;;;;;4959144;28;20027;-25
2021/12/03 02:08:40;;;;;;;35.33;4.75;;;;;;;;;;4976088;28;20027;-25
2021/12/03 02:11:07;;;;;;;19.42;4.18;;;;;;;;;;4976939;28;20307;-25
2021/12/03 02:13:33;;;;;;;37.50;5.80;;;;;;;;;;4975942;28;20031;-26
2021/12/03 02:16:00;;;;;;;27.67;4.47;;;;;;;;;;4976254;28;20023;-26
2021/12/03 02:18:26;;;;;;;24.65;4.00;;;;;;;;;;4958962;28;20540;-26
2021/12/03 02:20:53;;;;;;;32.13;7.00;;;;;;;;;;4975888;28;20066;-26
2021/12/03 02:23:20;;;;;;;39.60;4.75;;;;;;;;;;4975773;28;20050;-26
2021/12/03 02:25:47;;;;;;;41.72;4.72;;;;;;;;;;4975839;28;20034;-26
2021/12/03 02:28:14;;;;;;;22.73;5.07;;;;;;;;;;4976062;28;20419;-25
2021/12/03 02:30:40;;;;;;;31.88;3.65;;;;;;;;;;4975960;28;20038;-25
2021/12/03 02:33:07;;;;;;;24.83;6.13;;;;;;;;;;4975787;28;20027;-26
2021/12/03 02:35:34;;;;;;;33.22;7.03;;;;;;;;;;4975780;28;20018;-26
2021/12/03 02:38:00;;;;;;;37.72;5.10;;;;;;;;;;4975713;28;20033;-25
2021/12/03 02:40:27;;;;;;;31.63;5.25;;;;;;;;;;4975760;28;20035;-26
2021/12/03 02:42:54;;;;;;;16.13;3.92;;;;;;;;;;4975612;28;20038;-26
2021/12/03 02:45:20;;;;;;;20.73;3.60;;;;;;;;;;4975683;28;20520;-25
2021/12/03 02:47:47;;;;;;;24.50;4.47;;;;;;;;;;4975679;28;20046;-25
2021/12/03 02:50:14;;;;;;;22.35;4.50;;;;;;;;;;4975539;28;20023;-25
2021/12/03 02:52:40;;;;;;;21.27;4.15;;;;;;;;;;4975566;28;20465;-26
2021/12/03 02:55:07;;;;;;;21.17;4.82;;;;;;;;;;4975634;28;20027;-26
2021/12/03 02:57:33;;;;;;;26.98;4.80;;;;;;;;;;4976176;28;20027;-26
2021/12/03 03:00:00;;;;;;;26.35;4.25;;;;;;;;;;4975776;28;20476;-26
2021/12/03 03:02:26;;;;;;;25.77;4.72;;;;;;;;;;4975736;28;20031;-26
2021/12/03 03:04:53;;;;;;;21.70;4.95;;;;;;;;;;4975477;28;20078;-26
2021/12/03 03:07:19;;;;;;;26.65;4.18;;;;;;;;;;4975718;28;20039;-25
2021/12/03 03:09:46;;;;;;;19.38;4.28;;;;;;;;;;4978263;28;20473;-26
2021/12/03 03:12:15;;;;;;;21.92;5.95;;;;;;;;;;4979503;28;20035;-26
2021/12/03 03:14:46;;;;;;;28.02;4.68;;;;;;;;;;4962124;28;20030;-25
2021/12/03 03:17:12;;;;;;;20.40;3.42;;;;;;;;;;4979691;28;20497;-26
2021/12/03 03:19:38;;;;;;;25.42;4.60;;;;;;;;;;4979172;28;20031;-25
2021/12/03 03:22:05;;;;;;;25.95;4.63;;;;;;;;;;4979064;28;20027;-26
2021/12/03 03:24:31;;;;;;;28.65;4.28;;;;;;;;;;4979035;28;20062;-26
2021/12/03 03:26:58;;;;;;;26.52;4.60;;;;;;;;;;4979284;28;20343;-26
2021/12/03 03:29:24;;;;;;;21.83;4.20;;;;;;;;;;4978958;28;20057;-25
2021/12/03 03:31:52;;;;;;;20.80;4.35;;;;;;;;;;4979393;28;20497;-25
2021/12/03 03:34:18;;;;;;;19.05;4.88;;;;;;;;;;4978941;28;20143;-26
2021/12/03 03:36:45;;;;;;;21.98;4.15;;;;;;;;;;4961738;28;20105;-25
2021/12/03 03:39:14;;;;;;;17.17;4.18;;;;;;;;;;4979095;28;20023;-25
2021/12/03 03:41:41;;;;;;;26.58;4.65;;;;;;;;;;4979334;28;20027;-26
2021/12/03 03:44:08;;;;;;;16.75;3.70;;;;;;;;;;4961669;28;20477;-25
2021/12/03 03:46:34;;;;;;;27.40;3.88;;;;;;;;;;4978997;28;20395;-26
2021/12/03 03:49:00;;;;;;;23.05;3.90;;;;;;;;;;4978810;28;20046;-25
2021/12/03 03:51:27;;;;;;;18.65;4.75;;;;;;;;;;4978916;28;20023;-26
2021/12/03 03:53:53;;;;;;;24.40;4.10;;;;;;;;;;4978740;28;20027;-25
2021/12/03 03:56:19;;;;;;;19.45;4.35;;;;;;;;;;4978828;28;20023;-25
2021/12/03 03:58:45;;;;;;;25.20;3.83;;;;;;;;;;4978437;28;20027;-26
2021/12/03 04:01:12;;;;;;;20.52;4.00;;;;;;;;;;4978637;28;20066;-25
2021/12/03 04:03:39;;;;;;;18.33;3.60;;;;;;;;;;4978188;28;20537;-25
2021/12/03 04:06:05;;;;;;;25.15;5.85;;;;;;;;;;4978360;28;20328;-25
2021/12/03 04:08:31;;;;;;;22.15;4.68;;;;;;;;;;4961239;28;20035;-25
2021/12/03 04:10:58;;;;;;;24.75;5.32;;;;;;;;;;4978227;28;20027;-26
2021/12/03 04:13:24;;;;;;;25.45;3.60;;;;;;;;;;4978670;28;20022;-25
2021/12/03 04:15:50;;;;;;;15.13;3.55;;;;;;;;;;4978143;28;20046;-25
2021/12/03 04:18:17;;;;;;;14.65;3.83;;;;;;;;;;4978589;28;20084;-25
2021/12/03 04:20:43;;;;;;;27.60;4.35;;;;;;;;;;4977544;28;20063;-25
2021/12/03 04:23:12;;;;;;;18.92;3.45;;;;;;;;;;4978177;28;20031;-25
2021/12/03 04:25:39;;;;;;;21.48;4.90;;;;;;;;;;4978041;28;20035;-25
2021/12/03 04:28:05;;;;;;;17.52;3.92;;;;;;;;;;4977931;28;20034;-26
2021/12/03 04:30:31;;;;;;;13.20;4.05;;;;;;;;;;4978109;28;20184;-25
2021/12/03 04:32:58;;;;;;;24.42;3.97;;;;;;;;;;4978362;28;20030;-26
2021/12/03 04:35:25;;;;;;;18.88;5.13;;;;;;;;;;4977842;28;20461;-26
2021/12/03 04:37:51;;;;;;;25.33;5.43;;;;;;;;;;4978034;28;20358;-25
2021/12/03 04:40:18;;;;;;;26.85;5.03;;;;;;;;;;4977884;28;20033;-26
2021/12/03 04:42:44;;;;;;;21.95;4.70;;;;;;;;;;4977632;28;20035;-26
2021/12/03 04:45:12;;;;;;;15.75;3.42;;;;;;;;;;4977610;28;20026;-25
2021/12/03 04:47:38;;;;;;;17.15;3.55;;;;;;;;;;4977558;28;20035;-25
2021/12/03 04:50:06;;;;;;;18.13;3.45;;;;;;;;;;4978205;28;20059;-25
2021/12/03 04:52:32;;;;;;;18.00;4.32;;;;;;;;;;4977632;28;20027;-25
2021/12/03 04:54:58;;;;;;;14.50;3.40;;;;;;;;;;4977369;28;20063;-25
2021/12/03 04:57:24;;;;;;;7.78;3.35;;;;;;;;;;4977357;28;20106;-25
2021/12/03 04:59:51;;;;;;;28.75;5.68;;;;;;;;;;4977672;28;20037;-26
2021/12/03 05:02:19;;;;;;;18.73;3.65;;;;;;;;;;4977233;28;20097;-25
2021/12/03 05:04:47;;;;;;;18.95;4.47;;;;;;;;;;4976926;28;20051;-25
2021/12/03 05:09:53;;;;;;;17.05;4.25;;;;;;;;;;4976986;28;20035;-25
2021/12/03 05:12:19;;;;;;;15.75;3.33;;;;;;;;;;4976789;28;20026;-25
2021/12/03 05:14:45;;;;;;;14.77;3.47;;;;;;;;;;4976777;28;20042;-26
2021/12/03 05:17:11;;;;;;;10.45;3.15;;;;;;;;;;4977283;28;20112;-28
2021/12/03 05:19:38;;;;;;;17.65;3.78;;;;;;;;;;4976637;28;20065;-26
2021/12/03 05:22:04;;;;;;;16.50;3.45;;;;;;;;;;4976820;28;20034;-26
2021/12/03 05:24:30;;;;;;;16.17;3.50;;;;;;;;;;4976940;28;20034;-26
2021/12/03 05:26:56;;;;;;;19.67;3.80;;;;;;;;;;4976968;28;20331;-26
2021/12/03 05:29:23;;;;;;;20.10;3.80;;;;;;;;;;4976353;28;20039;-26
2021/12/03 05:31:50;;;;;;;20.58;4.78;;;;;;;;;;4975400;28;20041;-26
2021/12/03 05:34:16;;;;;;;16.88;3.33;;;;;;;;;;4977018;28;20035;-26
2021/12/03 05:36:46;;;;;;;16.95;6.38;;;;;;;;;;4976274;28;20106;-26
2021/12/03 05:39:12;;;;;;;27.63;4.07;;;;;;;;;;4976359;28;20038;-25
2021/12/03 05:41:39;;;;;;;17.60;4.07;;;;;;;;;;4959329;28;20330;-26
2021/12/03 05:44:05;;;;;;;19.85;4.32;;;;;;;;;;4976230;28;20106;-26
2021/12/03 05:46:31;;;;;;;27.73;5.97;;;;;;;;;;4976538;28;20465;-26
2021/12/03 05:48:58;;;;;;;23.25;3.92;;;;;;;;;;4976236;28;20029;-26
2021/12/03 05:51:26;;;;;;;19.48;3.67;;;;;;;;;;4976133;28;20106;-26
2021/12/03 05:53:53;;;;;;;22.88;5.93;;;;;;;;;;4959420;28;20462;-26
2021/12/03 05:56:19;;;;;;;23.00;4.22;;;;;;;;;;4976290;28;20027;-26
2021/12/03 05:58:45;;;;;;;26.08;6.28;;;;;;;;;;4976126;28;20026;-26
2021/12/03 06:01:12;;;;;;;19.70;3.90;;;;;;;;;;4976604;28;20035;-26
2021/12/03 06:03:38;;;;;;;30.92;4.38;;;;;;;;;;4975858;28;20046;-26
2021/12/03 06:06:04;;;;;;;35.83;4.75;;;;;;;;;;4975998;28;20061;-26
2021/12/03 06:08:30;;;;;;;34.55;4.75;;;;;;;;;;4958736;28;20031;-26
2021/12/03 06:10:57;;;;;;;24.42;4.72;;;;;;;;;;4975797;28;20355;-25
2021/12/03 06:13:23;;;;;;;28.40;4.47;;;;;;;;;;4958624;28;20450;-26
2021/12/03 06:15:49;;;;;;;30.73;4.25;;;;;;;;;;4976320;28;20031;-26
2021/12/03 06:18:15;;;;;;;23.60;3.47;;;;;;;;;;4976276;28;20348;-26
2021/12/03 06:20:42;;;;;;;37.55;5.25;;;;;;;;;;4975630;28;20039;-26
2021/12/03 06:23:08;;;;;;;28.42;5.63;;;;;;;;;;4975770;28;20035;-26
2021/12/03 06:25:34;;;;;;;29.08;4.70;;;;;;;;;;4958947;28;20421;-26
2021/12/03 06:28:01;;;;;;;36.67;4.80;;;;;;;;;;4975693;28;20069;-27
2021/12/03 06:30:27;;;;;;;55.67;5.00;;;;;;;;;;4959226;28;20085;-26
2021/12/03 06:32:53;;;;;;;23.13;3.90;;;;;;;;;;4958575;28;20084;-26
2021/12/03 06:35:20;;;;;;;28.25;4.85;;;;;;;;;;4975521;28;20078;-26
2021/12/03 06:37:47;;;;;;;26.02;4.45;;;;;;;;;;4975674;28;20347;-27
2021/12/03 06:40:24;;;;;;;36.28;7.13;;;;;;;;;;4958120;28;20038;-26
2021/12/03 06:42:50;;;;;;;50.67;5.60;;;;;;;;;;4975281;28;20019;-26
2021/12/03 06:45:17;;;;;;;33.20;5.53;;;;;;;;;;4975608;28;20053;-26
2021/12/03 06:47:44;;;;;;;25.25;4.25;;;;;;;;;;4975397;28;20058;-27
2021/12/03 06:50:12;;;;;;;35.90;4.85;;;;;;;;;;4975343;28;20038;-26
2021/12/03 06:52:41;;;;;;;20.48;5.90;;;;;;;;;;4975152;28;20023;-26
2021/12/03 06:55:10;;;;;;;20.98;3.85;;;;;;;;;;4975427;28;20051;-26
2021/12/03 06:57:37;;;;;;;32.17;4.35;;;;;;;;;;4975192;28;20027;-26
2021/12/03 07:00:04;;;;;;;32.70;4.82;;;;;;;;;;4958296;28;20035;-25
2021/12/03 07:02:30;;;;;;;48.13;6.78;;;;;;;;;;4975203;28;20027;-26
2021/12/03 07:04:56;;;;;;;34.85;4.80;;;;;;;;;;4974989;28;20130;-26
2021/12/03 07:07:23;;;;;;;39.22;4.10;;;;;;;;;;4958181;28;20026;-26
2021/12/03 07:09:49;;;;;;;31.88;5.78;;;;;;;;;;4975747;28;20035;-26
2021/12/03 07:12:15;;;;;;;35.90;5.47;;;;;;;;;;4957971;28;20065;-26
2021/12/03 07:14:42;;;;;;;37.55;4.78;;;;;;;;;;4975076;28;20039;-26
2021/12/03 07:17:08;;;;;;;33.17;5.18;;;;;;;;;;4975235;28;20395;-26
2021/12/03 07:19:35;;;;;;;31.95;5.57;;;;;;;;;;4958062;28;20030;-26
2021/12/03 07:22:01;;;;;;;33.00;4.78;;;;;;;;;;4975086;28;20027;-26
2021/12/03 07:24:27;;;;;;;21.20;4.00;;;;;;;;;;4975106;28;20137;-26
2021/12/03 07:26:53;;;;;;;32.25;4.47;;;;;;;;;;4975063;28;20034;-26
2021/12/03 07:29:20;;;;;;;26.73;4.60;;;;;;;;;;4975128;28;20031;-26
2021/12/03 07:31:46;;;;;;;44.08;6.28;;;;;;;;;;4975090;28;20033;-26
2021/12/03 07:34:14;;;;;;;25.05;3.95;;;;;;;;;;4957930;28;20037;-26
2021/12/03 07:36:40;;;;;;;35.50;5.35;;;;;;;;;;4975060;28;20027;-26
2021/12/03 07:39:07;;;;;;;36.08;5.07;;;;;;;;;;4975207;28;20061;-26
2021/12/03 07:41:36;;;;;;;41.33;6.80;;;;;;;;;;4975157;28;20027;-26
2021/12/03 07:44:02;;;;;;;21.70;4.43;;;;;;;;;;4974649;28;20022;-26
2021/12/03 07:46:28;;;;;;;38.17;5.93;;;;;;;;;;4974773;28;20110;-26
2021/12/03 07:48:55;;;;;;;29.40;5.63;;;;;;;;;;4957701;28;20026;-26
2021/12/03 07:51:21;;;;;;;40.58;7.32;;;;;;;;;;4957457;28;20066;-26
2021/12/03 07:53:47;;;;;;;39.65;6.90;;;;;;;;;;4974542;28;20069;-26
2021/12/03 07:56:13;;;;;;;51.95;6.22;;;;;;;;;;4976593;28;20023;-26
2021/12/03 07:58:40;;;;;;;38.40;6.85;;;;;;;;;;4978215;28;20038;-26
2021/12/03 08:01:06;;;;;;;37.95;5.10;;;;;;;;;;4978349;28;20085;-26
2021/12/03 08:03:32;;;;;;;35.40;5.70;;;;;;;;;;4978003;28;20137;-26
2021/12/03 08:06:04;;;;;;;42.08;5.78;;;;;;;;;;4978556;28;20062;-26
2021/12/03 08:08:31;;;;;;;33.55;4.65;;;;;;;;;;4960954;28;20031;-26
2021/12/03 08:10:58;;;;;;;53.92;6.95;;;;;;;;;;4977720;28;20061;-26
2021/12/03 08:13:24;;;;;;;31.60;5.20;;;;;;;;;;4978104;28;20101;-26
2021/12/03 08:15:51;;;;;;;32.38;4.80;;;;;;;;;;4978216;28;20027;-27
2021/12/03 08:18:18;;;;;;;40.13;5.30;;;;;;;;;;4978118;28;20033;-26
2021/12/03 08:20:44;;;;;;;25.80;4.45;;;;;;;;;;4977946;28;20149;-26
2021/12/03 08:23:12;;;;;;;24.15;4.63;;;;;;;;;;4977622;28;20089;-26
2021/12/03 08:25:39;;;;;;;32.50;5.00;;;;;;;;;;4977623;28;20030;-26
2021/12/03 08:28:05;;;;;;;33.80;5.10;;;;;;;;;;4977834;28;20027;-26
2021/12/03 08:30:32;;;;;;;38.03;5.35;;;;;;;;;;4960434;28;20462;-26
2021/12/03 08:32:58;;;;;;;33.13;5.78;;;;;;;;;;4977670;28;20041;-26
2021/12/03 08:35:25;;;;;;;26.20;4.93;;;;;;;;;;4977567;28;20469;-26
2021/12/03 08:37:52;;;;;;;29.67;5.40;;;;;;;;;;4960449;28;20058;-25
2021/12/03 08:40:20;;;;;;;24.42;5.28;;;;;;;;;;4977416;28;20078;-26
2021/12/03 08:42:46;;;;;;;28.40;5.53;;;;;;;;;;4960166;28;20481;-26
2021/12/03 08:45:16;;;;;;;22.77;3.97;;;;;;;;;;4977176;28;20106;-26
2021/12/03 08:47:44;;;;;;;30.75;4.13;;;;;;;;;;4977477;28;20041;-26
2021/12/03 08:50:17;;;;;;;39.45;6.13;;;;;;;;;;4977077;28;20019;-26
2021/12/03 08:55:13;;;;;;;49.40;5.43;;;;;;;;;;4977228;28;20428;-26
2021/12/03 08:57:40;;;;;;;42.08;5.05;;;;;;;;;;4977544;28;20415;-26
2021/12/03 09:00:14;;;;;;;37.25;5.85;;;;;;;;;;4960052;28;20026;-24
2021/12/03 09:02:41;;;;;;;35.25;5.35;;;;;;;;;;4976798;28;20038;-24
2021/12/03 09:05:08;;;;;;;49.97;8.68;;;;;;;;;;4976705;28;20390;-24
2021/12/03 09:07:36;;;;;;;25.75;5.18;;;;;;;;;;4960304;28;20038;-24
2021/12/03 09:10:05;;;;;;;30.25;6.10;;;;;;;;;;4976993;28;20038;-26
2021/12/03 09:12:31;;;;;;;31.98;5.68;;;;;;;;;;4977265;28;20034;-26
2021/12/03 09:15:02;;;;;;;41.40;6.57;;;;;;;;;;4976870;28;20091;-27
2021/12/03 09:26:09;;;;;;;35.33;5.35;;;;;;;;;;4977054;28;20533;-26
2021/12/03 09:28:36;;;;;;;31.13;4.97;;;;;;;;;;4976705;28;20031;-26
2021/12/03 09:31:02;;;;;;;35.13;6.05;;;;;;;;;;4959124;28;20153;-26
2021/12/03 09:33:31;;;;;;;44.28;5.18;;;;;;;;;;4976361;28;20023;-26
2021/12/03 09:36:02;;;;;;;36.00;5.22;;;;;;;;;;4976442;28;20030;-26
2021/12/03 09:38:32;;;;;;;35.40;5.97;;;;;;;;;;4959298;28;20118;-26
2021/12/03 09:41:09;;;;;;;34.05;5.00;;;;;;;;;;4976587;28;20089;-26
2021/12/03 09:43:39;;;;;;;45.67;6.30;;;;;;;;;;4976370;28;20042;-26
2021/12/03 09:46:23;;;;;;;36.35;4.88;;;;;;;;;;4959061;28;20031;-27
2021/12/03 09:49:03;;;;;;;45.90;7.68;;;;;;;;;;4976260;28;20030;-26
2021/12/03 09:51:49;;;;;;;34.08;5.30;;;;;;;;;;4975880;28;20031;-26
2021/12/03 09:56:42;;;;;;;35.85;6.40;;;;;;;;;;4975981;28;20101;-26
2021/12/03 10:12:50;;;;;;;38.28;5.05;;;;;;;;;;4976061;28;20109;-26
2021/12/03 10:15:32;;;;;;;33.40;6.20;;;;;;;;;;4975799;28;20220;-26
2021/12/03 10:18:08;;;;;;;37.60;5.75;;;;;;;;;;4975562;28;20532;-26
2021/12/03 10:20:59;;;;;;;26.17;5.85;;;;;;;;;;4976020;28;20101;-25
2021/12/03 10:42:28;;;;;;;28.52;6.22;;;;;;;;;;4975232;28;20125;-25
2021/12/03 10:45:14;;;;;;;28.92;5.90;;;;;;;;;;4975346;28;20114;-25
2021/12/03 10:50:32;;;;;;;30.38;5.63;;;;;;;;;;4975196;28;20474;-25
2021/12/03 10:58:39;;;;;;;31.90;4.28;;;;;;;;;;4975573;28;20049;-25
2021/12/03 11:07:24;;;;;;;29.55;5.75;;;;;;;;;;4975285;28;20099;-25
2021/12/03 11:29:05;;;;;;;30.75;6.35;;;;;;;;;;4975229;28;20049;-25
2021/12/03 11:39:33;;;;;;;31.05;4.60;;;;;;;;;;4978530;28;20105;-25
2021/12/03 11:51:23;;;;;;;18.30;3.92;;;;;;;;;;4978303;28;20046;-25
2021/12/03 12:18:47;;;;;;;;;;;;;;;;;;4978383;28;20022;-26
2021/12/03 13:10:28;;;;;;;32.35;5.18;;;;;;;;;;4976888;28;20031;-26
2021/12/03 13:12:59;;;;;;;30.90;6.13;;;;;;;;;;4976188;28;20035;-26
2021/12/03 13:24:25;;;;;;;28.98;4.95;;;;;;;;;;4976801;28;20109;-26
2021/12/03 13:27:28;;;;;;;23.90;4.63;;;;;;;;;;4975063;28;20047;-26
2021/12/03 14:39:50;;;;;;;30.27;4.78;;;;;;;;;;4975641;28;20039;-26
2021/12/03 14:45:09;;;;;;;26.20;6.63;;;;;;;;;;4975612;28;20031;-26
2021/12/03 14:47:52;;;;;;;28.02;5.97;;;;;;;;;;4975717;28;20029;-26
2021/12/03 14:55:40;;;;;;;47.35;6.65;;;;;;;;;;4975456;28;20035;-26
2021/12/03 14:58:14;;;;;;;25.55;5.03;;;;;;;;;;4975356;28;20022;-26
2021/12/03 15:05:55;;;;;;;34.05;4.90;;;;;;;;;;4978533;28;20057;-26
2021/12/03 15:32:31;;;;;;;47.00;6.07;;;;;;;;;;4979150;28;20042;-26
2021/12/03 15:37:44;;;;;;;28.25;5.10;;;;;;;;;;4978854;28;20042;-26
2021/12/03 16:04:34;;;;;;;35.97;5.32;;;;;;;;;;4978444;28;20127;-26
2021/12/03 16:07:11;;;;;;;37.90;5.55;;;;;;;;;;4978394;28;20019;-26
2021/12/03 16:10:03;;;;;;;27.95;5.32;;;;;;;;;;4978530;28;20478;-25
2021/12/03 16:18:24;;;;;;;38.15;4.95;;;;;;;;;;4977860;28;20458;-26
2021/12/03 16:45:25;;;;;;;24.20;4.28;;;;;;;;;;4977788;28;20073;-26
2021/12/03 16:51:07;;;;;;;19.27;3.55;;;;;;;;;;4934752;28;20097;-26
2021/12/03 16:53:34;;;;;;;22.58;5.75;;;;;;;;;;4977597;28;20030;-26
2021/12/03 16:56:07;;;;;;;40.20;5.47;;;;;;;;;;4960308;28;20414;-25
2021/12/03 16:58:35;;;;;;;21.17;4.25;;;;;;;;;;4977466;28;20034;-26
2021/12/03 17:01:07;;;;;;;24.60;3.67;;;;;;;;;;4977499;28;20023;-25
2021/12/03 17:03:46;;;;;;;29.75;4.82;;;;;;;;;;4977039;28;20118;-25
2021/12/03 17:11:59;;;;;;;26.83;4.53;;;;;;;;;;4977499;28;20438;-26
2021/12/03 17:54:11;;;;;;;25.35;4.57;;;;;;;;;;4976294;28;20356;-23
2021/12/03 17:56:45;;;;;;;27.05;4.70;;;;;;;;;;4976798;28;20023;-22
2021/12/03 18:01:54;;;;;;;19.65;4.45;;;;;;;;;;4976185;28;20169;-22
2021/12/03 18:09:52;;;;;;;25.90;4.70;;;;;;;;;;4976215;28;20041;-22
2021/12/03 18:52:50;;;;;;;16.17;3.80;;;;;;;;;;4976164;28;20042;-22
2021/12/03 18:57:56;;;;;;;17.08;4.35;;;;;;;;;;4975822;28;20090;-23
2021/12/03 19:00:26;;;;;;;32.83;6.43;;;;;;;;;;4975681;28;20031;-22
2021/12/03 19:02:55;;;;;;;32.90;4.78;;;;;;;;;;4975900;28;20121;-23
2021/12/03 19:08:07;;;;;;;;;;;;;;;;;;4956499;29;20134;-23
2021/12/03 19:10:37;;;;;;;24.10;4.60;;;;;;;;;;4956016;29;19918;-23
2021/12/03 19:13:05;;;;;;;31.80;4.13;;;;;;;;;;4956700;28;20059;-21
2021/12/03 19:15:33;;;;;;;36.58;4.60;;;;;;;;;;4956274;29;20102;-23
2021/12/03 19:18:02;;;;;;;45.75;5.93;;;;;;;;;;4956785;29;20038;-22
2021/12/03 19:20:35;;;;;;;22.20;4.43;;;;;;;;;;4956313;29;20086;-22
2021/12/03 19:23:01;;;;;;;36.45;4.82;;;;;;;;;;4955887;28;20037;-22
2021/12/03 19:25:28;;;;;;;40.83;4.15;;;;;;;;;;4955959;29;20105;-22
2021/12/03 19:27:54;;;;;;;31.17;4.45;;;;;;;;;;4939491;29;20027;-22
2021/12/03 19:30:21;;;;;;;27.88;4.40;;;;;;;;;;4956040;29;20053;-23
2021/12/03 19:32:47;;;;;;;21.42;5.78;;;;;;;;;;4955936;28;20332;-22
2021/12/03 19:35:14;;;;;;;28.33;5.53;;;;;;;;;;4954968;29;20031;-23
2021/12/03 19:37:40;;;;;;;31.55;5.68;;;;;;;;;;4956315;29;20027;-23
2021/12/03 19:40:11;;;;;;;35.33;5.55;;;;;;;;;;4956086;29;20062;-22
2021/12/03 19:42:49;;;;;;;32.10;5.47;;;;;;;;;;4956123;28;20031;-23
2021/12/03 19:45:19;;;;;;;34.00;6.05;;;;;;;;;;4956444;29;20070;-22
2021/12/03 19:53:18;;;;;;;;;;;;;;;;;;4901692;29;20033;-22
2021/12/03 19:55:45;;;;;;;39.47;6.53;;;;;;;;;;4949201;29;20373;-23
2021/12/03 19:58:12;;;;;;;31.52;4.95;;;;;;;;;;4959060;29;20027;-22
2021/12/03 20:00:39;;;;;;;28.30;4.75;;;;;;;;;;4959013;29;20097;-22
2021/12/03 20:03:06;;;;;;;31.77;4.15;;;;;;;;;;4960129;28;20459;-22
2021/12/03 20:05:32;;;;;;;42.80;6.15;;;;;;;;;;4961260;28;20442;-23
2021/12/03 20:08:01;;;;;;;38.17;7.35;;;;;;;;;;4978509;28;20443;-23
2021/12/03 20:10:28;;;;;;;30.98;5.78;;;;;;;;;;4978072;28;20109;-23
2021/12/03 20:12:54;;;;;;;28.40;5.45;;;;;;;;;;4978071;28;20046;-20
2021/12/03 20:15:33;;;;;;;27.45;5.55;;;;;;;;;;4978203;28;20110;-22
2021/12/03 20:20:41;;;;;;;;;;;;;;;;;;4979093;28;20074;-22
2021/12/03 20:23:26;;;;;;;38.03;5.63;;;;;;;;;;4978135;28;19910;-20
2021/12/03 20:28:41;;;;;;;35.67;4.88;;;;;;;;;;4977857;28;20034;-20
2021/12/03 20:31:08;;;;;;;31.67;5.20;;;;;;;;;;4978076;28;20031;-21
2021/12/03 20:39:11;;;;;;;36.25;5.13;;;;;;;;;;4977799;28;20038;-21
2021/12/03 20:42:20;;;;;;;41.58;4.90;;;;;;;;;;4977594;28;20041;-21
2021/12/03 20:47:33;;;;;;;31.17;4.82;;;;;;;;;;4977554;28;20418;-22
2021/12/03 21:11:07;;;;;;;35.15;5.07;;;;;;;;;;4977602;28;20035;-22
2021/12/03 21:13:38;;;;;;;;;;;;;;;;;;4977406;28;20031;-23
2021/12/03 21:21:43;;;;;;;27.98;4.38;;;;;;;;;;4976985;28;20441;-22
2021/12/03 21:24:10;;;;;;;40.38;5.30;;;;;;;;;;4976710;28;20030;-22
2021/12/03 21:26:39;;;;;;;27.33;5.93;;;;;;;;;;4977072;28;20055;-22
2021/12/03 21:40:13;;;;;;;37.33;5.63;;;;;;;;;;4976859;28;20106;-23
2021/12/03 21:42:39;;;;;;;29.83;5.30;;;;;;;;;;4959481;28;20430;-22
2021/12/03 21:45:06;;;;;;;27.60;4.63;;;;;;;;;;4977075;28;20102;-22
2021/12/03 21:47:32;;;;;;;42.05;4.82;;;;;;;;;;4976362;28;20108;-22
2021/12/03 21:49:58;;;;;;;30.55;5.70;;;;;;;;;;4959488;28;20034;-22
2021/12/03 21:52:26;;;;;;;48.88;5.75;;;;;;;;;;4976180;28;20105;-22
2021/12/03 21:54:52;;;;;;;26.52;5.50;;;;;;;;;;4976233;28;20406;-23
2021/12/03 21:57:24;;;;;;;43.95;4.60;;;;;;;;;;4976241;28;20365;-23
2021/12/03 21:59:51;;;;;;;32.25;5.20;;;;;;;;;;4976462;28;20058;-22
2021/12/03 22:02:17;;;;;;;37.70;5.63;;;;;;;;;;4976081;28;20105;-22
2021/12/03 22:04:43;;;;;;;47.72;6.68;;;;;;;;;;4975906;28;20057;-23
2021/12/03 22:07:11;;;;;;;40.05;4.95;;;;;;;;;;4976080;28;20362;-22
2021/12/03 22:09:38;;;;;;;45.60;7.28;;;;;;;;;;4976825;28;20438;-22
2021/12/03 22:12:05;;;;;;;50.97;6.10;;;;;;;;;;4976733;28;20035;-23
2021/12/03 22:14:33;;;;;;;51.42;6.55;;;;;;;;;;4975499;28;20058;-22
2021/12/03 22:16:59;;;;;;;53.95;6.53;;;;;;;;;;4975935;28;20034;-21
2021/12/03 22:19:26;;;;;;;43.45;5.57;;;;;;;;;;4975986;28;20039;-22
2021/12/03 22:21:52;;;;;;;52.22;5.38;;;;;;;;;;4976105;28;20039;-23
2021/12/03 22:24:18;;;;;;;65.22;6.40;;;;;;;;;;4975842;28;20023;-22
2021/12/03 22:26:45;;;;;;;53.55;6.88;;;;;;;;;;4975976;28;20030;-21
2021/12/03 22:29:13;;;;;;;36.22;5.50;;;;;;;;;;4976050;28;20089;-23
2021/12/03 22:31:39;;;;;;;55.28;6.30;;;;;;;;;;4975912;28;20057;-22
2021/12/03 22:34:06;;;;;;;67.35;8.25;;;;;;;;;;4975968;28;20037;-22
2021/12/03 22:36:32;;;;;;;42.08;6.95;;;;;;;;;;4975708;28;20035;-22
2021/12/03 22:38:58;;;;;;;51.97;6.70;;;;;;;;;;4975700;28;20019;-22
2021/12/03 22:41:25;;;;;;;68.93;5.97;;;;;;;;;;4975886;28;20109;-22
2021/12/03 22:43:53;;;;;;;57.35;6.63;;;;;;;;;;4958451;28;20031;-22
2021/12/03 22:46:29;;;;;;;56.83;6.10;;;;;;;;;;4975778;28;20031;-22
2021/12/03 22:49:33;;;;;;;53.03;6.55;;;;;;;;;;4975875;28;20089;-25
2021/12/03 22:54:20;;;;;;;50.80;6.30;;;;;;;;;;4975616;28;20077;-23
2021/12/03 22:56:47;;;;;;;60.38;8.05;;;;;;;;;;4975790;28;20023;-21
2021/12/03 22:59:14;;;;;;;59.92;6.85;;;;;;;;;;4975526;28;20101;-21
2021/12/03 23:01:40;;;;;;;53.85;6.95;;;;;;;;;;4975872;28;20407;-21
2021/12/03 23:04:07;;;;;;;56.45;6.35;;;;;;;;;;4975446;28;20441;-23
2021/12/03 23:06:34;;;;;;;54.10;5.90;;;;;;;;;;4976092;28;20022;-22